Kezdőlap
METAR-TAF:

METAR-TAF

Repülőterek :

Worthington Municipal Airport

Worthington, Minnesota, Amerikai Egyesült Államok

földrajzi szélesség: 43-39N, földrajzi hosszúság: 095-35W, magasság: 480 m

Jelenlegi meteorológiai megfigyelések

A jelentés 23 perccel ezelõtt készült, 16:56 UTC
Déli szél 14 kt széllökések: 19 kt
Hőmérséklet 28°C
Páratartalom 74%
Légköri nyomás 1016 hPa
Látótávolság: 16.1 km
Szakadozott felhőzet 2200 lábon

METAR: KOTG 131656Z AUTO 18014G19KT 10SM BKN022 28/23 A3000 RMK AO2 SLP149 T02780233

Idő: 12:19 (17:19 UTC)


TAF: hiányzik

Meteorológiai megfigyelések és előrejelzések több, mint 4000 repülőtéren (METAR és TAF jelentéseket).

A térképen piros és sárga pontok jelzik az elérhető meteorológiai állomásokat.

Mozgassa az egeret a pont fölött, hogy megjelenjen az állomás neve.

Azután kattintson az időjárási megfigyelések és előrejelzések megtekintéséhez.

A térkép megváltoztatása: kattintson a fekete keresztel jelölt zöld gombra ráközelítéshez, a vonallal jelölt zöld gombra távolításhoz, vagy a zöld nyilakra a szomszédos térképek eléréséhez.


METAR-TAF: